createdAt,value
2023-04-01T00:01:17.198Z,8.95
2023-04-01T00:03:43.720Z,4.05
2023-04-01T00:06:14.598Z,2.33
2023-04-01T00:08:40.959Z,3.33
2023-04-01T00:11:07.330Z,3.15
2023-04-01T00:13:33.714Z,7.47
2023-04-01T00:16:00.560Z,7.60
2023-04-01T00:18:27.744Z,6.25
2023-04-01T00:20:54.305Z,3.67
2023-04-01T00:23:21.501Z,3.08
2023-04-01T00:25:49.035Z,6.82
2023-04-01T00:28:20.856Z,5.22
2023-04-01T00:30:49.458Z,3.70
2023-04-01T00:33:17.352Z,5.15
2023-04-01T00:35:43.712Z,6.22
2023-04-01T00:38:12.142Z,6.70
2023-04-01T00:40:42.134Z,3.83
2023-04-01T00:43:19.310Z,4.13
2023-04-01T00:45:47.475Z,8.07
2023-04-01T00:48:27.715Z,4.43
2023-04-01T00:50:59.714Z,1.80
2023-04-01T00:53:26.719Z,4.57
2023-04-01T00:56:08.031Z,3.72
2023-04-01T00:58:39.560Z,4.75
2023-04-01T01:01:08.950Z,5.82
2023-04-01T01:03:36.123Z,2.78
2023-04-01T01:06:24.546Z,2.63
2023-04-01T01:09:08.418Z,3.40
2023-04-01T01:11:44.211Z,5.80
2023-04-01T01:14:14.812Z,3.72
2023-04-01T01:16:48.950Z,3.88
2023-04-01T01:19:51.423Z,2.72
2023-04-01T01:22:42.801Z,6.15
2023-04-01T01:25:26.491Z,8.05
2023-04-01T01:28:06.167Z,4.40
2023-04-01T01:30:37.976Z,2.78
2023-04-01T01:33:31.349Z,4.07
2023-04-01T01:38:29.785Z,4.32
2023-04-01T01:41:02.661Z,3.42
2023-04-01T01:43:34.166Z,4.43
2023-04-01T01:46:06.250Z,2.60
2023-04-01T01:48:36.020Z,3.97
2023-04-01T01:51:04.902Z,1.92
2023-04-01T01:53:31.317Z,3.50
2023-04-01T01:55:57.735Z,3.83
2023-04-01T01:58:31.127Z,4.20
2023-04-01T02:01:03.730Z,3.80
2023-04-01T02:03:35.270Z,3.38
2023-04-01T02:06:04.052Z,2.90
2023-04-01T02:08:41.130Z,3.97
2023-04-01T02:11:10.868Z,1.33
2023-04-01T02:13:46.629Z,2.53
2023-04-01T02:16:24.962Z,4.18
2023-04-01T02:18:55.299Z,3.95
2023-04-01T02:21:25.275Z,3.95
2023-04-01T02:23:55.548Z,2.42
2023-04-01T02:26:23.023Z,3.20
2023-04-01T02:28:51.564Z,2.25
2023-04-01T02:31:18.394Z,5.40
2023-04-01T02:33:45.937Z,3.92
2023-04-01T02:36:16.310Z,3.38
2023-04-01T02:38:45.447Z,3.50
2023-04-01T02:41:12.485Z,4.13
2023-04-01T02:43:38.915Z,2.33
2023-04-01T02:46:05.318Z,3.83
2023-04-01T02:48:31.725Z,3.75
2023-04-01T02:50:58.257Z,5.07
2023-04-01T02:53:24.683Z,5.90
2023-04-01T02:55:52.629Z,2.97
2023-04-01T02:58:19.624Z,4.22
2023-04-01T03:00:46.100Z,2.38
2023-04-01T03:03:14.298Z,4.30
2023-04-01T03:05:40.785Z,3.33
2023-04-01T03:08:07.315Z,4.72
2023-04-01T03:10:33.862Z,3.47
2023-04-01T03:13:00.572Z,6.47
2023-04-01T03:15:27.108Z,2.08
2023-04-01T03:17:54.505Z,5.97
2023-04-01T03:20:21.162Z,3.47
2023-04-01T03:22:47.648Z,4.03
2023-04-01T03:25:14.164Z,3.58
2023-04-01T03:27:40.559Z,3.63
2023-04-01T03:30:08.815Z,2.47
2023-04-01T03:32:41.689Z,3.60
2023-04-01T03:35:10.500Z,1.95
2023-04-01T03:37:36.976Z,1.20
2023-04-01T03:40:03.654Z,1.70
2023-04-01T03:42:32.195Z,3.20
2023-04-01T03:44:58.650Z,3.38
2023-04-01T03:47:25.251Z,2.40
2023-04-01T03:49:51.638Z,1.58
2023-04-01T03:52:19.305Z,3.50
2023-04-01T03:54:45.919Z,2.60
2023-04-01T03:57:12.386Z,5.25
2023-04-01T03:59:38.978Z,5.97
2023-04-01T04:02:06.344Z,4.97
2023-04-01T04:04:33.043Z,4.25
2023-04-01T04:06:59.467Z,8.52
2023-04-01T04:09:27.040Z,4.13
2023-04-01T04:11:54.378Z,3.47
2023-04-01T04:14:20.872Z,5.05
2023-04-01T04:16:48.169Z,1.75
2023-04-01T04:19:14.612Z,5.03
2023-04-01T04:21:42.077Z,3.80
2023-04-01T04:24:09.503Z,5.40
2023-04-01T04:26:55.865Z,2.70
2023-04-01T04:29:23.690Z,3.47
2023-04-01T04:31:50.286Z,2.88
2023-04-01T04:34:16.677Z,2.85
2023-04-01T04:36:43.996Z,3.75
2023-04-01T04:39:10.636Z,5.35
2023-04-01T04:41:38.755Z,3.03
2023-04-01T04:44:05.763Z,3.33
2023-04-01T04:46:32.601Z,3.85
2023-04-01T04:49:09.254Z,3.30
2023-04-01T04:51:36.856Z,5.63
2023-04-01T04:54:05.116Z,3.33
2023-04-01T04:56:44.944Z,4.90
2023-04-01T04:59:11.392Z,4.57
2023-04-01T05:01:46.972Z,3.33
2023-04-01T05:04:13.902Z,4.80
2023-04-01T05:06:40.360Z,5.68
2023-04-01T05:09:07.079Z,4.80
2023-04-01T05:11:33.505Z,2.80
2023-04-01T05:13:59.928Z,3.15
2023-04-01T05:16:27.215Z,3.35
2023-04-01T05:18:53.943Z,3.45
2023-04-01T05:21:20.606Z,1.75
2023-04-01T05:23:47.354Z,3.65
2023-04-01T05:26:15.263Z,3.80
2023-04-01T05:28:42.537Z,3.83
2023-04-01T05:31:09.650Z,3.20
2023-04-01T05:33:40.591Z,4.28
2023-04-01T05:36:13.080Z,2.20
2023-04-01T05:38:40.187Z,5.00
2023-04-01T05:41:09.286Z,2.30
2023-04-01T05:43:41.006Z,2.15
2023-04-01T05:46:27.465Z,1.05
2023-04-01T05:49:08.503Z,3.05
2023-04-01T05:51:35.219Z,2.70
2023-04-01T05:54:01.701Z,2.92
2023-04-01T05:56:28.399Z,3.90
2023-04-01T05:58:55.402Z,1.95
2023-04-01T06:01:23.866Z,1.98
2023-04-01T06:03:50.788Z,2.53
2023-04-01T06:06:26.276Z,1.45
2023-04-01T06:08:58.513Z,4.35
2023-04-01T06:11:37.968Z,2.13
2023-04-01T06:14:11.142Z,1.35
2023-04-01T06:17:01.992Z,1.35
2023-04-01T06:19:35.639Z,2.90
2023-04-01T06:22:23.340Z,2.50
2023-04-01T06:25:28.954Z,1.23
2023-04-01T06:28:30.977Z,1.80
2023-04-01T06:31:18.331Z,2.72
2023-04-01T06:34:16.072Z,2.63
2023-04-01T06:37:24.479Z,2.83
2023-04-01T06:39:58.704Z,2.13
2023-04-01T06:42:44.318Z,2.70
2023-04-01T06:45:48.695Z,1.00
2023-04-01T06:48:37.055Z,0.68
2023-04-01T06:51:39.329Z,0.52
2023-04-01T06:54:41.678Z,0.90
2023-04-01T06:57:39.914Z,2.10
2023-04-01T07:00:16.296Z,3.88
2023-04-01T07:02:50.958Z,0.77
2023-04-01T07:05:17.654Z,1.00
2023-04-01T07:07:49.771Z,1.65
2023-04-01T07:10:48.138Z,1.30
2023-04-01T07:14:17.379Z,3.13
2023-04-01T07:16:50.346Z,0.43
2023-04-01T07:19:28.658Z,1.65
2023-04-01T07:22:21.077Z,1.02
2023-04-01T07:25:14.160Z,1.98
2023-04-01T07:27:48.070Z,0.82
2023-04-01T07:30:19.803Z,1.10
2023-04-01T07:33:02.351Z,1.58
2023-04-01T07:35:29.039Z,1.27
2023-04-01T07:38:12.475Z,1.17
2023-04-01T07:43:43.801Z,1.50
2023-04-01T07:46:45.992Z,0.30
2023-04-01T07:49:35.682Z,0.70
2023-04-01T07:52:23.880Z,0.95
2023-04-01T07:55:18.724Z,1.30
2023-04-01T07:58:05.797Z,0.20
2023-04-01T08:00:42.401Z,0.82
2023-04-01T08:04:06.783Z,0.40
2023-04-01T08:06:55.784Z,0.47
2023-04-01T08:09:37.688Z,0.50
2023-04-01T08:13:12.247Z,0.98
2023-04-01T08:16:16.595Z,0.75
2023-04-01T08:18:59.872Z,2.38
2023-04-01T08:21:33.222Z,0.90
2023-04-01T08:24:12.264Z,0.22
2023-04-01T08:26:48.655Z,0.25
2023-04-01T08:29:22.863Z,1.05
2023-04-01T08:32:04.884Z,1.08
2023-04-01T08:34:41.624Z,0.82
2023-04-01T08:40:01.301Z,0.68
2023-04-01T08:42:53.536Z,0.88
2023-04-01T08:45:41.626Z,0.47
2023-04-01T08:48:24.227Z,1.55
2023-04-01T08:53:59.595Z,0.57
2023-04-01T08:56:59.028Z,3.08
2023-04-01T08:59:57.827Z,1.15
2023-04-01T09:02:58.220Z,3.42
2023-04-01T09:05:48.132Z,0.98
2023-04-01T09:08:28.827Z,0.50
2023-04-01T09:11:32.822Z,0.32
2023-04-01T09:14:28.125Z,0.95
2023-04-01T09:17:52.230Z,0.43
2023-04-01T09:20:41.535Z,0.88
2023-04-01T09:23:37.724Z,0.38
2023-04-01T09:26:14.529Z,0.20
2023-04-01T09:29:09.135Z,1.65
2023-04-01T09:32:09.987Z,1.88
2023-04-01T09:35:21.056Z,0.45
2023-04-01T09:37:57.522Z,1.20
2023-04-01T09:40:44.038Z,1.50
2023-04-01T09:44:02.389Z,0.90
2023-04-01T09:46:52.770Z,0.38
2023-04-01T09:49:33.722Z,1.65
2023-04-01T09:52:24.881Z,1.67
2023-04-01T09:55:20.663Z,0.70
2023-04-01T09:58:43.770Z,0.20
2023-04-01T10:02:17.092Z,0.68
2023-04-01T10:05:29.003Z,1.05
2023-04-01T10:08:34.865Z,1.45
2023-04-01T10:11:23.656Z,0.47
2023-04-01T10:14:04.510Z,1.67
2023-04-01T10:17:18.341Z,0.57
2023-04-01T10:20:15.377Z,1.33
2023-04-01T10:23:08.844Z,0.60
2023-04-01T10:25:58.991Z,1.58
2023-04-01T10:28:44.246Z,0.82
2023-04-01T10:31:51.583Z,0.90
2023-04-01T10:35:16.234Z,0.43
2023-04-01T10:37:58.540Z,0.77
2023-04-01T10:40:53.788Z,1.25
2023-04-01T10:43:55.629Z,0.25
2023-04-01T10:46:41.275Z,0.35
2023-04-01T10:49:43.533Z,0.43
2023-04-01T10:52:13.074Z,1.65
2023-04-01T10:55:38.284Z,0.60
2023-04-01T10:59:09.943Z,0.22
2023-04-01T11:02:10.135Z,1.92
2023-04-01T11:05:21.373Z,1.77
2023-04-01T11:08:23.548Z,0.90
2023-04-01T11:11:29.291Z,0.40
2023-04-01T11:14:22.178Z,0.60
2023-04-01T11:17:13.655Z,1.67
2023-04-01T11:20:10.067Z,1.40
2023-04-01T11:23:01.392Z,0.30
2023-04-01T11:25:51.559Z,0.90
2023-04-01T11:29:10.733Z,0.30
2023-04-01T11:32:13.390Z,0.50
2023-04-01T11:35:17.820Z,0.45
2023-04-01T11:38:14.969Z,0.17
2023-04-01T11:41:26.349Z,1.85
2023-04-01T11:47:46.989Z,0.50
2023-04-01T11:50:21.616Z,1.38
2023-04-01T11:53:07.726Z,1.10
2023-04-01T11:56:02.983Z,0.30
2023-04-01T11:58:44.723Z,0.25
2023-04-01T12:01:24.913Z,0.20
2023-04-01T12:04:07.070Z,1.67
2023-04-01T12:06:53.521Z,0.53
2023-04-01T12:09:49.336Z,0.52
2023-04-01T12:12:24.747Z,1.63
2023-04-01T12:15:16.166Z,0.20
2023-04-01T12:18:03.576Z,1.23
2023-04-01T12:20:55.459Z,0.40
2023-04-01T12:23:40.287Z,1.08
2023-04-01T12:26:26.408Z,0.55
2023-04-01T12:29:38.040Z,0.50
2023-04-01T12:32:36.840Z,1.67
2023-04-01T12:35:22.777Z,1.48
2023-04-01T12:38:08.458Z,0.85
2023-04-01T12:40:57.310Z,1.90
2023-04-01T12:44:01.103Z,1.55
2023-04-01T12:49:17.792Z,1.30
2023-04-01T12:52:04.301Z,0.30
2023-04-01T12:54:49.480Z,0.47
2023-04-01T12:57:46.811Z,0.47
2023-04-01T13:00:42.364Z,1.15
2023-04-01T13:03:37.809Z,0.68
2023-04-01T13:06:26.102Z,0.20
2023-04-01T13:09:19.660Z,0.73
2023-04-01T13:12:23.845Z,1.10
2023-04-01T13:15:18.411Z,0.20
2023-04-01T13:17:58.820Z,4.10
2023-04-01T13:20:44.109Z,0.20
2023-04-01T13:23:51.655Z,0.63
2023-04-01T13:26:30.830Z,1.55
2023-04-01T13:29:08.031Z,0.30
2023-04-01T13:31:47.051Z,2.30
2023-04-01T13:34:32.896Z,0.90
2023-04-01T13:37:31.198Z,0.75
2023-04-01T13:40:24.591Z,0.30
2023-04-01T13:45:26.700Z,1.70
2023-04-01T13:48:20.191Z,1.35
2023-04-01T13:51:14.794Z,0.80
2023-04-01T13:54:18.949Z,1.83
2023-04-01T13:57:04.557Z,2.63
2023-04-01T13:59:41.559Z,2.10
2023-04-01T14:02:23.511Z,1.75
2023-04-01T14:05:15.984Z,0.88
2023-04-01T14:07:53.741Z,0.85
2023-04-01T14:10:37.692Z,2.00
2023-04-01T14:13:29.740Z,1.83
2023-04-01T14:16:08.458Z,1.10
2023-04-01T14:18:54.887Z,1.75
2023-04-01T14:21:30.159Z,2.92
2023-04-01T14:24:53.332Z,1.58
2023-04-01T14:27:20.428Z,2.53
2023-04-01T14:30:10.465Z,2.25
2023-04-01T14:32:50.334Z,1.75
2023-04-01T14:35:32.129Z,3.83
2023-04-01T14:38:04.486Z,0.45
2023-04-01T14:40:57.615Z,0.50
2023-04-01T14:43:55.435Z,2.63
2023-04-01T14:46:57.153Z,0.95
2023-04-01T14:49:35.321Z,0.98
2023-04-01T14:52:12.368Z,0.50
2023-04-01T14:54:42.617Z,0.95
2023-04-01T14:57:13.791Z,2.03
2023-04-01T14:59:52.461Z,0.35
2023-04-01T15:02:48.170Z,1.20
2023-04-01T15:05:35.897Z,0.52
2023-04-01T15:08:38.823Z,1.42
2023-04-01T15:11:14.618Z,0.43
2023-04-01T15:14:12.848Z,1.85
2023-04-01T15:17:03.240Z,0.55
2023-04-01T15:19:58.204Z,1.85
2023-04-01T15:22:27.573Z,2.85
2023-04-01T15:25:02.367Z,1.67
2023-04-01T15:27:51.963Z,3.30
2023-04-01T15:30:31.834Z,2.55
2023-04-01T15:33:29.317Z,0.63
2023-04-01T15:36:14.319Z,1.40
2023-04-01T15:39:10.376Z,1.17
2023-04-01T15:42:06.948Z,1.10
2023-04-01T15:44:49.169Z,0.68
2023-04-01T15:47:40.885Z,0.75
2023-04-01T15:50:24.009Z,1.48
2023-04-01T15:52:51.454Z,0.95
2023-04-01T15:55:40.406Z,0.57
2023-04-01T15:58:42.344Z,1.33
2023-04-01T16:01:17.801Z,1.00
2023-04-01T16:04:00.663Z,1.20
2023-04-01T16:06:45.331Z,1.48
2023-04-01T16:09:18.541Z,0.52
2023-04-01T16:12:15.917Z,1.05
2023-04-01T16:14:54.779Z,0.80
2023-04-01T16:17:45.460Z,2.30
2023-04-01T16:20:21.550Z,0.52
2023-04-01T16:22:58.534Z,1.13
2023-04-01T16:25:42.633Z,2.50
2023-04-01T16:28:21.146Z,1.38
2023-04-01T16:31:26.070Z,2.42
2023-04-01T16:34:09.279Z,2.08
2023-04-01T16:36:44.397Z,1.08
2023-04-01T16:39:48.403Z,1.83
2023-04-01T16:42:43.765Z,2.35
2023-04-01T16:45:40.930Z,1.60
2023-04-01T16:48:10.286Z,1.52
2023-04-01T16:50:47.651Z,1.50
2023-04-01T16:53:13.909Z,1.75
2023-04-01T16:56:07.986Z,1.60
2023-04-01T16:58:37.245Z,3.35
2023-04-01T17:01:08.400Z,2.30
2023-04-01T17:03:42.472Z,1.83
2023-04-01T17:06:46.259Z,2.00
2023-04-01T17:12:09.856Z,1.50
2023-04-01T17:14:51.391Z,2.67
2023-04-01T17:17:55.032Z,2.83
2023-04-01T17:23:18.622Z,2.67
2023-04-01T17:25:47.950Z,2.13
2023-04-01T17:28:43.047Z,5.38
2023-04-01T17:31:40.662Z,1.20
2023-04-01T17:34:28.932Z,1.85
2023-04-01T17:37:10.096Z,2.03
2023-04-01T17:39:42.110Z,0.65
2023-04-01T17:42:31.920Z,2.13
2023-04-01T17:45:12.358Z,4.72
2023-04-01T17:47:48.904Z,1.88
2023-04-01T17:50:43.302Z,1.00
2023-04-01T17:53:21.135Z,2.35
2023-04-01T17:55:56.531Z,13.27
2023-04-01T17:58:43.074Z,4.25
2023-04-01T18:01:21.582Z,3.05
2023-04-01T18:04:18.459Z,1.58
2023-04-01T18:07:18.916Z,3.35
2023-04-01T18:10:24.509Z,0.52
2023-04-01T18:12:59.825Z,0.75
2023-04-01T18:15:55.705Z,0.95
2023-04-01T18:18:40.305Z,0.57
2023-04-01T18:21:46.416Z,1.00
2023-04-01T18:24:20.070Z,1.52
2023-04-01T18:27:25.282Z,2.53
2023-04-01T18:29:56.078Z,6.72
2023-04-01T18:32:47.409Z,6.15
2023-04-01T18:35:22.128Z,2.17
2023-04-01T18:38:01.760Z,3.88
2023-04-01T18:40:35.269Z,0.85
2023-04-01T18:43:41.446Z,0.95
2023-04-01T18:46:23.257Z,1.20
2023-04-01T18:49:06.554Z,0.77
2023-04-01T18:51:48.931Z,0.80
2023-04-01T18:54:24.242Z,1.53
2023-04-01T18:56:50.936Z,0.90
2023-04-01T18:59:20.356Z,0.55
2023-04-01T19:02:20.664Z,1.50
2023-04-01T19:05:23.819Z,0.70
2023-04-01T19:07:55.890Z,0.63
2023-04-01T19:10:44.481Z,1.10
2023-04-01T19:13:31.330Z,1.52
2023-04-01T19:16:19.993Z,0.30
2023-04-01T19:18:54.691Z,2.42
2023-04-01T19:21:36.415Z,0.50
2023-04-01T19:24:39.541Z,0.38
2023-04-01T19:27:32.759Z,0.50
2023-04-01T19:30:22.180Z,2.38
2023-04-01T19:33:08.153Z,0.88
2023-04-01T19:35:52.289Z,0.60
2023-04-01T19:38:35.792Z,0.95
2023-04-01T19:41:26.355Z,1.33
2023-04-01T19:44:11.788Z,1.60
2023-04-01T19:47:08.540Z,0.80
2023-04-01T19:49:40.781Z,1.20
2023-04-01T19:52:29.785Z,0.57
2023-04-01T19:55:26.059Z,0.43
2023-04-01T19:58:06.558Z,0.57
2023-04-01T20:00:45.297Z,0.77
2023-04-01T20:03:45.937Z,3.55
2023-04-01T20:06:30.469Z,1.00
2023-04-01T20:09:25.705Z,0.88
2023-04-01T20:12:30.405Z,1.13
2023-04-01T20:15:04.635Z,2.28
2023-04-01T20:17:42.869Z,2.13
2023-04-01T20:20:09.370Z,0.77
2023-04-01T20:23:00.722Z,0.50
2023-04-01T20:25:44.154Z,1.15
2023-04-01T20:28:21.813Z,1.30
2023-04-01T20:31:16.278Z,2.28
2023-04-01T20:34:19.933Z,0.75
2023-04-01T20:37:02.623Z,1.50
2023-04-01T20:39:43.849Z,1.40
2023-04-01T20:42:52.184Z,1.23
2023-04-01T20:45:25.980Z,1.10
2023-04-01T20:48:35.251Z,0.93
2023-04-01T20:51:19.052Z,1.08
2023-04-01T20:54:13.566Z,1.40
2023-04-01T20:57:10.099Z,1.33
2023-04-01T21:00:05.761Z,1.65
2023-04-01T21:02:32.043Z,2.58
2023-04-01T21:05:30.918Z,2.33
2023-04-01T21:08:21.610Z,1.70
2023-04-01T21:11:02.110Z,1.75
2023-04-01T21:13:57.438Z,1.05
2023-04-01T21:16:29.242Z,1.13
2023-04-01T21:19:23.761Z,0.90
2023-04-01T21:22:07.515Z,0.80
2023-04-01T21:24:49.141Z,1.17
2023-04-01T21:27:21.586Z,1.38
2023-04-01T21:30:17.324Z,3.08
2023-04-01T21:32:57.797Z,1.23
2023-04-01T21:35:37.550Z,1.90
2023-04-01T21:38:17.724Z,1.30
2023-04-01T21:40:57.824Z,0.90
2023-04-01T21:43:54.723Z,1.17
2023-04-01T21:46:47.699Z,1.25
2023-04-01T21:49:30.609Z,1.88
2023-04-01T21:52:11.856Z,2.85
2023-04-01T21:55:01.066Z,1.65
2023-04-01T21:57:58.295Z,3.22
2023-04-01T22:00:25.944Z,2.35
2023-04-01T22:03:26.057Z,2.47
2023-04-01T22:06:06.036Z,2.75
2023-04-01T22:08:41.859Z,1.02
2023-04-01T22:11:22.462Z,1.67
2023-04-01T22:14:04.419Z,1.88
2023-04-01T22:19:47.348Z,2.38
2023-04-01T22:22:51.309Z,1.23
2023-04-01T22:25:30.119Z,3.00
2023-04-01T22:28:08.731Z,0.80
2023-04-01T22:30:59.988Z,1.27
2023-04-01T22:33:45.153Z,0.80
2023-04-01T22:36:34.444Z,1.08
2023-04-01T22:39:39.327Z,1.15
2023-04-01T22:42:45.572Z,0.80
2023-04-01T22:45:44.392Z,1.92
2023-04-01T22:48:26.276Z,1.55
2023-04-01T22:51:16.264Z,1.02
2023-04-01T22:54:05.582Z,1.00
2023-04-01T22:56:40.671Z,0.98
2023-04-01T22:59:36.487Z,14.35
2023-04-01T23:02:34.663Z,10.98
2023-04-01T23:05:04.750Z,10.35
2023-04-01T23:07:47.343Z,12.60
2023-04-01T23:10:21.603Z,11.35
2023-04-01T23:12:50.397Z,7.07
2023-04-01T23:15:17.490Z,9.95
2023-04-01T23:18:06.645Z,8.95
2023-04-01T23:20:54.231Z,9.00
2023-04-01T23:23:48.666Z,8.00
2023-04-01T23:26:30.359Z,7.70
2023-04-01T23:28:57.931Z,7.93
2023-04-01T23:31:35.402Z,8.25
2023-04-01T23:34:21.610Z,7.22
2023-04-01T23:36:51.598Z,7.75
2023-04-01T23:39:38.056Z,6.50
2023-04-01T23:42:08.781Z,6.80
2023-04-01T23:44:36.939Z,7.85
2023-04-01T23:47:05.133Z,6.65
2023-04-01T23:49:37.675Z,8.10
2023-04-01T23:52:12.823Z,7.85
2023-04-01T23:54:50.054Z,10.02
2023-04-01T23:57:24.031Z,8.38
